METAR Data
IDs: Format: Raw Decoded Include TAF

Data at: 0141 UTC 26 Apr 2019

KBWI 260054Z 11006KT 10SM BKN120 OVC160 19/11 A2987 RMK AO2 SLP115 T01890111
KBWI 252354Z 09009KT 10SM FEW040 BKN100 BKN170 OVC250 19/12 A2986 RMK AO2 SLP112 T01940117 10228 20194 55000
KBWI 252254Z 10008KT 10SM FEW040 BKN100 BKN180 20/11 A2986 RMK AO2 SLP109 T02000106
KBWI 252154Z 08008KT 10SM SCT037 BKN120 BKN160 21/09 A2986 RMK AO2 SLP112 T02110094
KBWI 252054Z 07008KT 10SM FEW060 BKN120 BKN160 22/09 A2986 RMK AO2 SLP112 T02170094 56011
KBWI 251954Z 07008KT 10SM SCT120 BKN160 BKN250 22/09 A2987 RMK AO2 SLP113 T02220089
KBWI 251854Z 07007KT 10SM SCT050 SCT110 BKN160 BKN250 22/10 A2989 RMK AO2 SLP120 T02220100
KBWI 251754Z 09007KT 10SM FEW110 SCT160 BKN250 21/08 A2990 RMK AO2 SLP123 T02110083 10217 20167 56014
KBWI 251654Z 08006KT 10SM FEW055 FEW100 BKN160 BKN250 21/07 A2991 RMK AO2 SLP128 T02060072
KBWI 251554Z 09007KT 10SM FEW055 BKN090 BKN160 BKN250 21/08 A2992 RMK AO2 SLP129 T02060078
KBWI 251454Z 06004KT 10SM FEW055 FEW080 SCT110 BKN160 BKN250 18/08 A2994 RMK AO2 SLP137 T01830078 55000
KBWI 251354Z 07008KT 10SM FEW055 SCT080 BKN110 BKN160 17/06 A2992 RMK AO2 SLP132 VCSH S-SW T01720061
KBWI 251254Z 08008KT 10SM SCT070 BKN100 OVC160 18/04 A2994 RMK AO2 SLP136 T01780044
KBWI 251154Z 03005KT 10SM SCT070 BKN100 OVC160 17/06 A2994 RMK AO2 SLP137 T01670061 10172 20133 53017
KBWI 251054Z 00000KT 10SM SCT070 BKN100 BKN150 OVC250 17/04 A2992 RMK AO2 SLP132 T01670039
KBWI 250954Z 00000KT 10SM SCT080 BKN100 OVC250 16/06 A2990 RMK AO2 SLP123 T01560056
KBWI 250854Z 00000KT 10SM SCT095 BKN120 OVC250 14/08 A2989 RMK AO2 SLP120 T01390078 55000
KBWI 250754Z 36003KT 10SM SCT095 BKN120 BKN250 14/07 A2988 RMK AO2 SLP119 T01440072
KBWI 250654Z 00000KT 10SM SCT120 SCT160 BKN250 14/07 A2988 RMK AO2 SLP119 T01390072
KBWI 250554Z 00000KT 10SM FEW095 SCT130 BKN160 BKN250 17/05 A2989 RMK AO2 SLP120 T01720050 10211 20133 50000
KBWI 250454Z 00000KT 10SM SCT100 BKN130 BKN250 15/09 A2990 RMK AO2 SLP125 T01500089 402440133
KBWI 250354Z 29004KT 10SM BKN130 BKN160 BKN250 14/07 A2990 RMK AO2 SLP125 T01440072
KBWI 250254Z 00000KT 10SM SCT120 SCT160 BKN250 15/07 A2989 RMK AO2 SLP120 T01500067 51017
KBWI 250154Z 28003KT 10SM SCT120 BKN160 BKN250 15/07 A2988 RMK AO2 SLP117 T01500072
KBWI 250054Z 00000KT 10SM FEW120 BKN160 BKN250 17/06 A2986 RMK AO2 SLP110 T01670056
KBWI 242354Z 34004KT 10SM FEW130 BKN160 BKN250 21/03 A2984 RMK AO2 SLP104 T02110033 10244 20211 53005
KBWI 242254Z 34004KT 10SM SCT130 BKN160 BKN250 22/03 A2983 RMK AO2 SLP099 T02220033
KBWI 242154Z 28007KT 10SM FEW130 BKN170 BKN250 23/03 A2983 RMK AO2 SLP100 T02330033
KBWI 242054Z 30008KT 10SM FEW130 BKN170 BKN250 24/03 A2982 RMK AO2 SLP098 T02390033 55005
KBWI 241954Z 27007G19KT 10SM FEW130 SCT170 BKN250 24/03 A2982 RMK AO2 SLP097 T02390033
KBWI 241854Z 31011G19KT 10SM FEW130 SCT170 BKN250 24/03 A2983 RMK AO2 SLP100 T02390028
KBWI 241754Z 28013G17KT 10SM FEW170 BKN250 23/04 A2984 RMK AO2 SLP103 T02280039 10233 20172 58012
KBWI 241654Z 30011G19KT 10SM FEW170 SCT250 22/04 A2986 RMK AO2 SLP110 T02220044
KBWI 241554Z 32011KT 10SM FEW170 SCT250 21/05 A2987 RMK AO2 SLP113 T02060050
KBWI 241454Z 29007G16KT 230V350 10SM SCT170 BKN250 20/07 A2987 RMK AO2 SLP116 T02000067 51013
KBWI 241354Z 30012G20KT 10SM SCT170 BKN250 18/08 A2987 RMK AO2 SLP113 T01780078